Terminal Aerodrome Forecast
Issued by NWS

Home | Current Version | Previous Version | Text Only | Print | Product List | Glossary On
Versions: 1 2 3 4 5 6 7 8 9 10 11 12 13 14 15 16 17 18 19
000
FTUS44 KLIX 302300
TAFMSY
TAF
KMSY 302336Z 0100/0124 15005KT P6SM FEW030
     FM011100 11004KT P6SM SCT020 BKN110
     FM011500 12005KT P6SM VCSH SCT025 BKN100
     FM011800 13006KT P6SM VCTS BKN025CB=

USA.gov is the U.S. government's official web portal to all federal, state and local government web resources and services.